sensor_id;sensor_type;location;lat;lon;timestamp;P1;P2;P0
71858;PMS5003;59713;50.866;4.324;2023-04-16T00:00:06;7;7;
71858;PMS5003;59713;50.866;4.324;2023-04-16T00:01:05;8;6;
71858;PMS5003;59713;50.866;4.324;2023-04-16T00:02:05;8;6;
71858;PMS5003;59713;50.866;4.324;2023-04-16T00:02:05;8;6;
71858;PMS5003;59713;50.866;4.324;2023-04-16T00:03:05;8;6;
71858;PMS5003;59713;50.866;4.324;2023-04-16T00:04:05;7;5;
71858;PMS5003;59713;50.866;4.324;2023-04-16T00:05:05;7;5;
71858;PMS5003;59713;50.866;4.324;2023-04-16T00:06:05;7;5;
71858;PMS5003;59713;50.866;4.324;2023-04-16T00:07:05;8;8;
71858;PMS5003;59713;50.866;4.324;2023-04-16T00:08:05;8;8;
71858;PMS5003;59713;50.866;4.324;2023-04-16T00:09:05;8;8;
71858;PMS5003;59713;50.866;4.324;2023-04-16T00:10:05;6;6;
71858;PMS5003;59713;50.866;4.324;2023-04-16T00:11:05;6;6;
71858;PMS5003;59713;50.866;4.324;2023-04-16T00:11:05;6;6;
71858;PMS5003;59713;50.866;4.324;2023-04-16T00:12:05;6;6;
71858;PMS5003;59713;50.866;4.324;2023-04-16T00:13:05;8;7;
71858;PMS5003;59713;50.866;4.324;2023-04-16T00:14:05;8;7;
71858;PMS5003;59713;50.866;4.324;2023-04-16T00:15:05;8;7;
71858;PMS5003;59713;50.866;4.324;2023-04-16T00:16:05;7;5;
71858;PMS5003;59713;50.866;4.324;2023-04-16T00:17:05;7;5;
71858;PMS5003;59713;50.866;4.324;2023-04-16T00:18:05;7;5;
71858;PMS5003;59713;50.866;4.324;2023-04-16T00:19:05;9;6;
71858;PMS5003;59713;50.866;4.324;2023-04-16T00:20:05;9;6;
71858;PMS5003;59713;50.866;4.324;2023-04-16T00:20:05;9;6;
71858;PMS5003;59713;50.866;4.324;2023-04-16T00:21:05;9;6;
71858;PMS5003;59713;50.866;4.324;2023-04-16T00:22:05;10;9;
71858;PMS5003;59713;50.866;4.324;2023-04-16T00:23:15;10;9;
71858;PMS5003;59713;50.866;4.324;2023-04-16T00:24:05;10;9;
71858;PMS5003;59713;50.866;4.324;2023-04-16T00:25:05;9;9;
71858;PMS5003;59713;50.866;4.324;2023-04-16T00:26:05;9;9;
71858;PMS5003;59713;50.866;4.324;2023-04-16T00:27:05;9;9;
71858;PMS5003;59713;50.866;4.324;2023-04-16T00:28:05;9;9;
71858;PMS5003;59713;50.866;4.324;2023-04-16T00:29:05;9;9;
71858;PMS5003;59713;50.866;4.324;2023-04-16T00:30:05;9;9;
71858;PMS5003;59713;50.866;4.324;2023-04-16T00:30:05;9;9;
71858;PMS5003;59713;50.866;4.324;2023-04-16T00:31:05;9;9;
71858;PMS5003;59713;50.866;4.324;2023-04-16T00:32:05;9;9;
71858;PMS5003;59713;50.866;4.324;2023-04-16T00:33:05;9;9;
71858;PMS5003;59713;50.866;4.324;2023-04-16T00:34:05;11;8;
71858;PMS5003;59713;50.866;4.324;2023-04-16T00:35:05;11;8;
71858;PMS5003;59713;50.866;4.324;2023-04-16T00:36:05;11;8;
71858;PMS5003;59713;50.866;4.324;2023-04-16T00:37:05;7;7;
71858;PMS5003;59713;50.866;4.324;2023-04-16T00:38:05;7;7;
71858;PMS5003;59713;50.866;4.324;2023-04-16T00:39:05;7;7;
71858;PMS5003;59713;50.866;4.324;2023-04-16T00:40:05;11;8;
71858;PMS5003;59713;50.866;4.324;2023-04-16T00:41:05;11;8;
71858;PMS5003;59713;50.866;4.324;2023-04-16T00:42:05;11;8;
71858;PMS5003;59713;50.866;4.324;2023-04-16T00:43:05;8;7;
71858;PMS5003;59713;50.866;4.324;2023-04-16T00:44:05;8;7;
71858;PMS5003;59713;50.866;4.324;2023-04-16T00:45:05;8;7;
71858;PMS5003;59713;50.866;4.324;2023-04-16T00:46:05;11;9;
71858;PMS5003;59713;50.866;4.324;2023-04-16T00:47:05;11;9;
71858;PMS5003;59713;50.866;4.324;2023-04-16T00:48:05;11;9;
71858;PMS5003;59713;50.866;4.324;2023-04-16T00:49:05;8;7;
71858;PMS5003;59713;50.866;4.324;2023-04-16T00:50:06;8;7;
71858;PMS5003;59713;50.866;4.324;2023-04-16T00:51:05;8;7;
71858;PMS5003;59713;50.866;4.324;2023-04-16T00:52:05;8;6;
71858;PMS5003;59713;50.866;4.324;2023-04-16T00:53:05;8;6;
71858;PMS5003;59713;50.866;4.324;2023-04-16T00:54:05;8;6;
71858;PMS5003;59713;50.866;4.324;2023-04-16T00:55:05;5;5;
71858;PMS5003;59713;50.866;4.324;2023-04-16T00:56:05;5;5;
71858;PMS5003;59713;50.866;4.324;2023-04-16T00:57:05;5;5;
71858;PMS5003;59713;50.866;4.324;2023-04-16T00:57:05;5;5;
71858;PMS5003;59713;50.866;4.324;2023-04-16T00:58:05;9;7;
71858;PMS5003;59713;50.866;4.324;2023-04-16T00:59:05;9;7;
71858;PMS5003;59713;50.866;4.324;2023-04-16T01:00:05;9;7;
71858;PMS5003;59713;50.866;4.324;2023-04-16T01:01:05;8;6;
71858;PMS5003;59713;50.866;4.324;2023-04-16T01:02:05;8;6;
71858;PMS5003;59713;50.866;4.324;2023-04-16T01:03:05;8;6;
71858;PMS5003;59713;50.866;4.324;2023-04-16T01:04:05;6;6;
71858;PMS5003;59713;50.866;4.324;2023-04-16T01:05:05;6;6;
71858;PMS5003;59713;50.866;4.324;2023-04-16T01:06:05;6;6;
71858;PMS5003;59713;50.866;4.324;2023-04-16T01:06:05;6;6;
71858;PMS5003;59713;50.866;4.324;2023-04-16T01:07:05;6;5;
71858;PMS5003;59713;50.866;4.324;2023-04-16T01:08:05;6;5;
71858;PMS5003;59713;50.866;4.324;2023-04-16T01:09:05;6;5;
71858;PMS5003;59713;50.866;4.324;2023-04-16T01:10:05;5;5;
71858;PMS5003;59713;50.866;4.324;2023-04-16T01:11:05;5;5;
71858;PMS5003;59713;50.866;4.324;2023-04-16T01:12:05;5;5;
71858;PMS5003;59713;50.866;4.324;2023-04-16T01:13:05;10;5;
71858;PMS5003;59713;50.866;4.324;2023-04-16T01:14:05;10;5;
71858;PMS5003;59713;50.866;4.324;2023-04-16T01:15:06;10;5;
71858;PMS5003;59713;50.866;4.324;2023-04-16T01:15:06;10;5;
71858;PMS5003;59713;50.866;4.324;2023-04-16T01:16:07;5;3;
71858;PMS5003;59713;50.866;4.324;2023-04-16T01:17:05;5;3;
71858;PMS5003;59713;50.866;4.324;2023-04-16T01:18:12;5;3;
71858;PMS5003;59713;50.866;4.324;2023-04-16T01:19:05;7;5;
71858;PMS5003;59713;50.866;4.324;2023-04-16T01:20:05;7;5;
71858;PMS5003;59713;50.866;4.324;2023-04-16T01:21:05;7;5;
71858;PMS5003;59713;50.866;4.324;2023-04-16T01:22:05;5;5;
71858;PMS5003;59713;50.866;4.324;2023-04-16T01:23:05;5;5;
71858;PMS5003;59713;50.866;4.324;2023-04-16T01:24:05;5;5;
71858;PMS5003;59713;50.866;4.324;2023-04-16T01:24:05;5;5;
71858;PMS5003;59713;50.866;4.324;2023-04-16T01:25:05;6;5;
71858;PMS5003;59713;50.866;4.324;2023-04-16T01:26:05;6;5;
71858;PMS5003;59713;50.866;4.324;2023-04-16T01:27:05;6;5;
71858;PMS5003;59713;50.866;4.324;2023-04-16T01:28:05;7;6;
71858;PMS5003;59713;50.866;4.324;2023-04-16T01:29:05;7;6;
71858;PMS5003;59713;50.866;4.324;2023-04-16T01:30:06;7;6;
71858;PMS5003;59713;50.866;4.324;2023-04-16T01:31:05;6;6;
71858;PMS5003;59713;50.866;4.324;2023-04-16T01:32:05;6;6;
71858;PMS5003;59713;50.866;4.324;2023-04-16T01:33:05;6;6;
71858;PMS5003;59713;50.866;4.324;2023-04-16T01:33:05;6;6;
71858;PMS5003;59713;50.866;4.324;2023-04-16T01:34:05;8;6;
71858;PMS5003;59713;50.866;4.324;2023-04-16T01:35:05;8;6;
71858;PMS5003;59713;50.866;4.324;2023-04-16T01:36:05;8;6;
71858;PMS5003;59713;50.866;4.324;2023-04-16T01:37:05;8;7;
71858;PMS5003;59713;50.866;4.324;2023-04-16T01:38:05;8;7;
71858;PMS5003;59713;50.866;4.324;2023-04-16T01:39:05;8;7;
71858;PMS5003;59713;50.866;4.324;2023-04-16T01:40:06;6;6;
71858;PMS5003;59713;50.866;4.324;2023-04-16T01:41:05;6;6;
71858;PMS5003;59713;50.866;4.324;2023-04-16T01:42:05;6;6;
71858;PMS5003;59713;50.866;4.324;2023-04-16T01:43:05;7;6;
71858;PMS5003;59713;50.866;4.324;2023-04-16T01:43:05;7;6;
71858;PMS5003;59713;50.866;4.324;2023-04-16T01:44:05;7;6;
71858;PMS5003;59713;50.866;4.324;2023-04-16T01:45:06;7;6;
71858;PMS5003;59713;50.866;4.324;2023-04-16T01:46:11;6;6;
71858;PMS5003;59713;50.866;4.324;2023-04-16T01:47:05;6;6;
71858;PMS5003;59713;50.866;4.324;2023-04-16T01:48:05;6;6;
71858;PMS5003;59713;50.866;4.324;2023-04-16T01:49:05;7;7;
71858;PMS5003;59713;50.866;4.324;2023-04-16T01:50:06;7;7;
71858;PMS5003;59713;50.866;4.324;2023-04-16T01:51:05;7;7;
71858;PMS5003;59713;50.866;4.324;2023-04-16T01:52:05;7;5;
71858;PMS5003;59713;50.866;4.324;2023-04-16T01:53:05;7;5;
71858;PMS5003;59713;50.866;4.324;2023-04-16T01:53:05;7;5;
71858;PMS5003;59713;50.866;4.324;2023-04-16T01:54:05;7;5;
71858;PMS5003;59713;50.866;4.324;2023-04-16T01:55:05;5;4;
71858;PMS5003;59713;50.866;4.324;2023-04-16T01:56:05;5;4;
71858;PMS5003;59713;50.866;4.324;2023-04-16T01:57:05;5;4;
71858;PMS5003;59713;50.866;4.324;2023-04-16T01:58:05;9;9;
71858;PMS5003;59713;50.866;4.324;2023-04-16T01:59:05;9;9;
71858;PMS5003;59713;50.866;4.324;2023-04-16T02:00:06;9;9;
71858;PMS5003;59713;50.866;4.324;2023-04-16T02:01:05;8;8;
71858;PMS5003;59713;50.866;4.324;2023-04-16T02:02:07;8;8;
71858;PMS5003;59713;50.866;4.324;2023-04-16T02:02:07;8;8;
71858;PMS5003;59713;50.866;4.324;2023-04-16T02:03:05;8;8;
71858;PMS5003;59713;50.866;4.324;2023-04-16T02:04:05;6;6;
71858;PMS5003;59713;50.866;4.324;2023-04-16T02:05:05;6;6;
71858;PMS5003;59713;50.866;4.324;2023-04-16T02:06:05;6;6;
71858;PMS5003;59713;50.866;4.324;2023-04-16T02:07:05;7;5;
71858;PMS5003;59713;50.866;4.324;2023-04-16T02:08:05;7;5;
71858;PMS5003;59713;50.866;4.324;2023-04-16T02:09:05;7;5;
71858;PMS5003;59713;50.866;4.324;2023-04-16T02:10:06;9;7;
71858;PMS5003;59713;50.866;4.324;2023-04-16T02:11:05;9;7;
71858;PMS5003;59713;50.866;4.324;2023-04-16T02:12:05;9;7;
71858;PMS5003;59713;50.866;4.324;2023-04-16T02:13:05;11;8;
71858;PMS5003;59713;50.866;4.324;2023-04-16T02:14:05;11;8;
71858;PMS5003;59713;50.866;4.324;2023-04-16T02:15:06;11;8;
71858;PMS5003;59713;50.866;4.324;2023-04-16T02:16:05;8;7;
71858;PMS5003;59713;50.866;4.324;2023-04-16T02:17:05;8;7;
71858;PMS5003;59713;50.866;4.324;2023-04-16T02:18:05;8;7;
71858;PMS5003;59713;50.866;4.324;2023-04-16T02:19:05;7;7;
71858;PMS5003;59713;50.866;4.324;2023-04-16T02:20:06;7;7;
71858;PMS5003;59713;50.866;4.324;2023-04-16T02:20:06;7;7;
71858;PMS5003;59713;50.866;4.324;2023-04-16T02:21:05;7;7;
71858;PMS5003;59713;50.866;4.324;2023-04-16T02:22:05;7;6;
71858;PMS5003;59713;50.866;4.324;2023-04-16T02:23:05;7;6;
71858;PMS5003;59713;50.866;4.324;2023-04-16T02:24:05;7;6;
71858;PMS5003;59713;50.866;4.324;2023-04-16T02:25:05;7;7;
71858;PMS5003;59713;50.866;4.324;2023-04-16T02:26:05;7;7;
71858;PMS5003;59713;50.866;4.324;2023-04-16T02:27:05;7;7;
71858;PMS5003;59713;50.866;4.324;2023-04-16T02:28:05;7;7;
71858;PMS5003;59713;50.866;4.324;2023-04-16T02:29:05;7;7;
71858;PMS5003;59713;50.866;4.324;2023-04-16T02:30:06;7;7;
71858;PMS5003;59713;50.866;4.324;2023-04-16T02:30:06;7;7;
71858;PMS5003;59713;50.866;4.324;2023-04-16T02:31:05;6;6;
71858;PMS5003;59713;50.866;4.324;2023-04-16T02:32:05;6;6;
71858;PMS5003;59713;50.866;4.324;2023-04-16T02:33:06;6;6;
71858;PMS5003;59713;50.866;4.324;2023-04-16T02:34:05;9;6;
71858;PMS5003;59713;50.866;4.324;2023-04-16T02:35:05;9;6;
71858;PMS5003;59713;50.866;4.324;2023-04-16T02:36:05;9;6;
71858;PMS5003;59713;50.866;4.324;2023-04-16T02:37:05;6;6;
71858;PMS5003;59713;50.866;4.324;2023-04-16T02:38:05;6;6;
71858;PMS5003;59713;50.866;4.324;2023-04-16T02:39:05;6;6;
71858;PMS5003;59713;50.866;4.324;2023-04-16T02:39:05;6;6;
71858;PMS5003;59713;50.866;4.324;2023-04-16T02:40:06;5;5;
71858;PMS5003;59713;50.866;4.324;2023-04-16T02:41:05;5;5;
71858;PMS5003;59713;50.866;4.324;2023-04-16T02:42:05;5;5;
71858;PMS5003;59713;50.866;4.324;2023-04-16T02:43:05;6;6;
71858;PMS5003;59713;50.866;4.324;2023-04-16T02:44:05;6;6;
71858;PMS5003;59713;50.866;4.324;2023-04-16T02:45:06;6;6;
71858;PMS5003;59713;50.866;4.324;2023-04-16T02:46:05;7;6;
71858;PMS5003;59713;50.866;4.324;2023-04-16T02:47:05;7;6;
71858;PMS5003;59713;50.866;4.324;2023-04-16T02:48:05;7;6;
71858;PMS5003;59713;50.866;4.324;2023-04-16T02:48:05;7;6;
71858;PMS5003;59713;50.866;4.324;2023-04-16T02:49:05;8;8;
71858;PMS5003;59713;50.866;4.324;2023-04-16T02:50:06;8;8;
71858;PMS5003;59713;50.866;4.324;2023-04-16T02:51:05;8;8;
71858;PMS5003;59713;50.866;4.324;2023-04-16T02:52:05;6;6;
71858;PMS5003;59713;50.866;4.324;2023-04-16T02:53:05;6;6;
71858;PMS5003;59713;50.866;4.324;2023-04-16T02:54:05;6;6;
71858;PMS5003;59713;50.866;4.324;2023-04-16T02:55:05;6;6;
71858;PMS5003;59713;50.866;4.324;2023-04-16T02:56:05;6;6;
71858;PMS5003;59713;50.866;4.324;2023-04-16T02:57:05;6;6;
71858;PMS5003;59713;50.866;4.324;2023-04-16T02:57:05;6;6;
71858;PMS5003;59713;50.866;4.324;2023-04-16T02:58:05;9;6;
71858;PMS5003;59713;50.866;4.324;2023-04-16T02:59:05;9;6;
71858;PMS5003;59713;50.866;4.324;2023-04-16T03:00:06;9;6;
71858;PMS5003;59713;50.866;4.324;2023-04-16T03:01:05;5;5;
71858;PMS5003;59713;50.866;4.324;2023-04-16T03:02:05;5;5;
71858;PMS5003;59713;50.866;4.324;2023-04-16T03:03:05;5;5;
71858;PMS5003;59713;50.866;4.324;2023-04-16T03:04:05;8;6;
71858;PMS5003;59713;50.866;4.324;2023-04-16T03:05:05;8;6;
71858;PMS5003;59713;50.866;4.324;2023-04-16T03:06:05;8;6;
71858;PMS5003;59713;50.866;4.324;2023-04-16T03:06:05;8;6;
71858;PMS5003;59713;50.866;4.324;2023-04-16T03:07:05;5;5;
71858;PMS5003;59713;50.866;4.324;2023-04-16T03:08:05;5;5;
71858;PMS5003;59713;50.866;4.324;2023-04-16T03:09:05;5;5;
71858;PMS5003;59713;50.866;4.324;2023-04-16T03:10:06;7;5;
71858;PMS5003;59713;50.866;4.324;2023-04-16T03:11:05;7;5;
71858;PMS5003;59713;50.866;4.324;2023-04-16T03:12:05;7;5;
71858;PMS5003;59713;50.866;4.324;2023-04-16T03:13:05;4;4;
71858;PMS5003;59713;50.866;4.324;2023-04-16T03:14:05;4;4;
71858;PMS5003;59713;50.866;4.324;2023-04-16T03:15:06;4;4;
71858;PMS5003;59713;50.866;4.324;2023-04-16T03:15:06;4;4;
71858;PMS5003;59713;50.866;4.324;2023-04-16T03:16:05;5;5;
71858;PMS5003;59713;50.866;4.324;2023-04-16T03:17:05;5;5;
71858;PMS5003;59713;50.866;4.324;2023-04-16T03:18:05;5;5;
71858;PMS5003;59713;50.866;4.324;2023-04-16T03:19:05;7;5;
71858;PMS5003;59713;50.866;4.324;2023-04-16T03:20:06;7;5;
71858;PMS5003;59713;50.866;4.324;2023-04-16T03:21:05;7;5;
71858;PMS5003;59713;50.866;4.324;2023-04-16T03:22:05;5;4;
71858;PMS5003;59713;50.866;4.324;2023-04-16T03:23:05;5;4;
71858;PMS5003;59713;50.866;4.324;2023-04-16T03:24:05;5;4;
71858;PMS5003;59713;50.866;4.324;2023-04-16T03:25:06;7;4;
71858;PMS5003;59713;50.866;4.324;2023-04-16T03:25:06;7;4;
71858;PMS5003;59713;50.866;4.324;2023-04-16T03:26:05;7;4;
71858;PMS5003;59713;50.866;4.324;2023-04-16T03:27:05;7;4;
71858;PMS5003;59713;50.866;4.324;2023-04-16T03:28:05;4;4;
71858;PMS5003;59713;50.866;4.324;2023-04-16T03:29:05;4;4;
71858;PMS5003;59713;50.866;4.324;2023-04-16T03:30:06;4;4;
71858;PMS5003;59713;50.866;4.324;2023-04-16T03:31:05;3;3;
71858;PMS5003;59713;50.866;4.324;2023-04-16T03:32:05;3;3;
71858;PMS5003;59713;50.866;4.324;2023-04-16T03:33:05;3;3;
71858;PMS5003;59713;50.866;4.324;2023-04-16T03:34:05;7;4;
71858;PMS5003;59713;50.866;4.324;2023-04-16T03:34:05;7;4;
71858;PMS5003;59713;50.866;4.324;2023-04-16T03:35:06;7;4;
71858;PMS5003;59713;50.866;4.324;2023-04-16T03:36:05;7;4;
71858;PMS5003;59713;50.866;4.324;2023-04-16T03:37:05;6;4;
71858;PMS5003;59713;50.866;4.324;2023-04-16T03:38:05;6;4;
71858;PMS5003;59713;50.866;4.324;2023-04-16T03:39:05;6;4;
71858;PMS5003;59713;50.866;4.324;2023-04-16T03:40:06;5;4;
71858;PMS5003;59713;50.866;4.324;2023-04-16T03:41:05;5;4;
71858;PMS5003;59713;50.866;4.324;2023-04-16T03:42:05;5;4;
71858;PMS5003;59713;50.866;4.324;2023-04-16T03:43:05;4;2;
71858;PMS5003;59713;50.866;4.324;2023-04-16T03:44:05;4;2;
71858;PMS5003;59713;50.866;4.324;2023-04-16T03:44:05;4;2;
71858;PMS5003;59713;50.866;4.324;2023-04-16T03:45:06;4;2;
71858;PMS5003;59713;50.866;4.324;2023-04-16T03:46:05;2;2;
71858;PMS5003;59713;50.866;4.324;2023-04-16T03:47:05;2;2;
71858;PMS5003;59713;50.866;4.324;2023-04-16T03:48:05;2;2;
71858;PMS5003;59713;50.866;4.324;2023-04-16T03:49:05;2;2;
71858;PMS5003;59713;50.866;4.324;2023-04-16T03:50:05;2;2;
71858;PMS5003;59713;50.866;4.324;2023-04-16T03:51:05;2;2;
71858;PMS5003;59713;50.866;4.324;2023-04-16T03:52:05;6;4;
71858;PMS5003;59713;50.866;4.324;2023-04-16T03:53:05;6;4;
71858;PMS5003;59713;50.866;4.324;2023-04-16T03:53:05;6;4;
71858;PMS5003;59713;50.866;4.324;2023-04-16T03:54:05;6;4;
71858;PMS5003;59713;50.866;4.324;2023-04-16T03:55:06;3;3;
71858;PMS5003;59713;50.866;4.324;2023-04-16T03:56:05;3;3;
71858;PMS5003;59713;50.866;4.324;2023-04-16T03:57:05;3;3;
71858;PMS5003;59713;50.866;4.324;2023-04-16T03:58:05;7;6;
71858;PMS5003;59713;50.866;4.324;2023-04-16T03:59:05;7;6;
71858;PMS5003;59713;50.866;4.324;2023-04-16T04:00:06;7;6;
71858;PMS5003;59713;50.866;4.324;2023-04-16T04:01:05;4;4;
71858;PMS5003;59713;50.866;4.324;2023-04-16T04:02:05;4;4;
71858;PMS5003;59713;50.866;4.324;2023-04-16T04:02:05;4;4;
71858;PMS5003;59713;50.866;4.324;2023-04-16T04:03:05;4;4;
71858;PMS5003;59713;50.866;4.324;2023-04-16T04:04:05;5;3;
71858;PMS5003;59713;50.866;4.324;2023-04-16T04:05:06;5;3;
71858;PMS5003;59713;50.866;4.324;2023-04-16T04:06:06;5;3;
71858;PMS5003;59713;50.866;4.324;2023-04-16T04:07:05;6;4;
71858;PMS5003;59713;50.866;4.324;2023-04-16T04:08:05;6;4;
71858;PMS5003;59713;50.866;4.324;2023-04-16T04:09:05;6;4;
71858;PMS5003;59713;50.866;4.324;2023-04-16T04:10:06;6;4;
71858;PMS5003;59713;50.866;4.324;2023-04-16T04:11:05;6;4;
71858;PMS5003;59713;50.866;4.324;2023-04-16T04:11:05;6;4;
71858;PMS5003;59713;50.866;4.324;2023-04-16T04:12:05;6;4;
71858;PMS5003;59713;50.866;4.324;2023-04-16T04:13:06;4;4;
71858;PMS5003;59713;50.866;4.324;2023-04-16T04:14:05;4;4;
71858;PMS5003;59713;50.866;4.324;2023-04-16T04:15:06;4;4;
71858;PMS5003;59713;50.866;4.324;2023-04-16T04:16:06;4;4;
71858;PMS5003;59713;50.866;4.324;2023-04-16T04:17:05;4;4;
71858;PMS5003;59713;50.866;4.324;2023-04-16T04:18:05;4;4;
71858;PMS5003;59713;50.866;4.324;2023-04-16T04:19:05;6;5;
71858;PMS5003;59713;50.866;4.324;2023-04-16T04:20:06;6;5;
71858;PMS5003;59713;50.866;4.324;2023-04-16T04:20:06;6;5;
71858;PMS5003;59713;50.866;4.324;2023-04-16T04:21:06;6;5;
71858;PMS5003;59713;50.866;4.324;2023-04-16T04:22:05;6;3;
71858;PMS5003;59713;50.866;4.324;2023-04-16T04:23:05;6;3;
71858;PMS5003;59713;50.866;4.324;2023-04-16T04:24:05;6;3;
71858;PMS5003;59713;50.866;4.324;2023-04-16T04:25:06;3;3;
71858;PMS5003;59713;50.866;4.324;2023-04-16T04:26:05;3;3;
71858;PMS5003;59713;50.866;4.324;2023-04-16T04:27:05;3;3;
71858;PMS5003;59713;50.866;4.324;2023-04-16T04:28:05;8;5;
71858;PMS5003;59713;50.866;4.324;2023-04-16T04:29:05;8;5;
71858;PMS5003;59713;50.866;4.324;2023-04-16T04:29:05;8;5;
71858;PMS5003;59713;50.866;4.324;2023-04-16T04:30:06;8;5;
71858;PMS5003;59713;50.866;4.324;2023-04-16T04:31:05;4;4;
71858;PMS5003;59713;50.866;4.324;2023-04-16T04:32:05;4;4;
71858;PMS5003;59713;50.866;4.324;2023-04-16T04:33:05;4;4;
71858;PMS5003;59713;50.866;4.324;2023-04-16T04:34:05;5;5;
71858;PMS5003;59713;50.866;4.324;2023-04-16T04:35:06;5;5;
71858;PMS5003;59713;50.866;4.324;2023-04-16T04:36:06;5;5;
71858;PMS5003;59713;50.866;4.324;2023-04-16T04:37:05;3;3;
71858;PMS5003;59713;50.866;4.324;2023-04-16T04:38:05;3;3;
71858;PMS5003;59713;50.866;4.324;2023-04-16T04:39:05;3;3;
71858;PMS5003;59713;50.866;4.324;2023-04-16T04:39:05;3;3;
71858;PMS5003;59713;50.866;4.324;2023-04-16T04:40:06;3;3;
71858;PMS5003;59713;50.866;4.324;2023-04-16T04:41:05;3;3;
71858;PMS5003;59713;50.866;4.324;2023-04-16T04:42:07;3;3;
71858;PMS5003;59713;50.866;4.324;2023-04-16T04:43:05;5;4;
71858;PMS5003;59713;50.866;4.324;2023-04-16T04:44:05;5;4;
71858;PMS5003;59713;50.866;4.324;2023-04-16T04:45:06;5;4;
71858;PMS5003;59713;50.866;4.324;2023-04-16T04:46:05;5;5;
71858;PMS5003;59713;50.866;4.324;2023-04-16T04:47:05;5;5;
71858;PMS5003;59713;50.866;4.324;2023-04-16T04:48:05;5;5;
71858;PMS5003;59713;50.866;4.324;2023-04-16T04:49:05;4;4;
71858;PMS5003;59713;50.866;4.324;2023-04-16T04:49:05;4;4;
71858;PMS5003;59713;50.866;4.324;2023-04-16T04:50:06;4;4;
71858;PMS5003;59713;50.866;4.324;2023-04-16T04:51:05;4;4;
71858;PMS5003;59713;50.866;4.324;2023-04-16T04:52:06;7;4;
71858;PMS5003;59713;50.866;4.324;2023-04-16T04:53:07;7;4;
71858;PMS5003;59713;50.866;4.324;2023-04-16T04:54:05;7;4;
71858;PMS5003;59713;50.866;4.324;2023-04-16T04:55:06;3;3;
71858;PMS5003;59713;50.866;4.324;2023-04-16T04:56:06;3;3;
71858;PMS5003;59713;50.866;4.324;2023-04-16T04:57:05;3;3;
71858;PMS5003;59713;50.866;4.324;2023-04-16T04:58:06;5;4;
71858;PMS5003;59713;50.866;4.324;2023-04-16T04:58:06;5;4;
71858;PMS5003;59713;50.866;4.324;2023-04-16T04:59:05;5;4;
71858;PMS5003;59713;50.866;4.324;2023-04-16T05:00:06;5;4;
71858;PMS5003;59713;50.866;4.324;2023-04-16T05:01:05;4;4;
71858;PMS5003;59713;50.866;4.324;2023-04-16T05:02:06;4;4;
71858;PMS5003;59713;50.866;4.324;2023-04-16T05:03:08;4;4;
71858;PMS5003;59713;50.866;4.324;2023-04-16T05:04:06;4;4;
71858;PMS5003;59713;50.866;4.324;2023-04-16T05:05:06;4;4;
71858;PMS5003;59713;50.866;4.324;2023-04-16T05:06:05;4;4;
71858;PMS5003;59713;50.866;4.324;2023-04-16T05:07:05;5;3;
71858;PMS5003;59713;50.866;4.324;2023-04-16T05:07:05;5;3;
71858;PMS5003;59713;50.866;4.324;2023-04-16T05:08:05;5;3;
71858;PMS5003;59713;50.866;4.324;2023-04-16T05:09:05;5;3;
71858;PMS5003;59713;50.866;4.324;2023-04-16T05:10:06;4;3;
71858;PMS5003;59713;50.866;4.324;2023-04-16T05:11:06;4;3;
71858;PMS5003;59713;50.866;4.324;2023-04-16T05:12:05;4;3;
71858;PMS5003;59713;50.866;4.324;2023-04-16T05:13:05;4;2;
71858;PMS5003;59713;50.866;4.324;2023-04-16T05:14:05;4;2;
71858;PMS5003;59713;50.866;4.324;2023-04-16T05:15:06;4;2;
71858;PMS5003;59713;50.866;4.324;2023-04-16T05:16:06;5;3;
71858;PMS5003;59713;50.866;4.324;2023-04-16T05:17:05;5;3;
71858;PMS5003;59713;50.866;4.324;2023-04-16T05:18:05;5;3;
71858;PMS5003;59713;50.866;4.324;2023-04-16T05:19:05;6;3;
71858;PMS5003;59713;50.866;4.324;2023-04-16T05:20:06;6;3;
71858;PMS5003;59713;50.866;4.324;2023-04-16T05:21:05;6;3;
71858;PMS5003;59713;50.866;4.324;2023-04-16T05:22:05;5;3;
71858;PMS5003;59713;50.866;4.324;2023-04-16T05:23:05;5;3;
71858;PMS5003;59713;50.866;4.324;2023-04-16T05:24:05;5;3;
71858;PMS5003;59713;50.866;4.324;2023-04-16T05:25:06;3;3;
71858;PMS5003;59713;50.866;4.324;2023-04-16T05:26:05;3;3;
71858;PMS5003;59713;50.866;4.324;2023-04-16T05:26:05;3;3;
71858;PMS5003;59713;50.866;4.324;2023-04-16T05:27:05;3;3;
71858;PMS5003;59713;50.866;4.324;2023-04-16T05:28:05;2;2;
71858;PMS5003;59713;50.866;4.324;2023-04-16T05:29:05;2;2;
71858;PMS5003;59713;50.866;4.324;2023-04-16T05:30:06;2;2;
71858;PMS5003;59713;50.866;4.324;2023-04-16T05:31:05;2;2;
71858;PMS5003;59713;50.866;4.324;2023-04-16T05:32:05;2;2;
71858;PMS5003;59713;50.866;4.324;2023-04-16T05:33:05;2;2;
71858;PMS5003;59713;50.866;4.324;2023-04-16T05:34:05;2;2;
71858;PMS5003;59713;50.866;4.324;2023-04-16T05:35:06;2;2;
71858;PMS5003;59713;50.866;4.324;2023-04-16T05:35:06;2;2;
71858;PMS5003;59713;50.866;4.324;2023-04-16T05:36:05;2;2;
71858;PMS5003;59713;50.866;4.324;2023-04-16T05:37:07;3;3;
71858;PMS5003;59713;50.866;4.324;2023-04-16T05:38:05;3;3;
71858;PMS5003;59713;50.866;4.324;2023-04-16T05:39:05;3;3;
71858;PMS5003;59713;50.866;4.324;2023-04-16T05:40:06;5;3;
71858;PMS5003;59713;50.866;4.324;2023-04-16T05:41:05;5;3;
71858;PMS5003;59713;50.866;4.324;2023-04-16T05:42:06;5;3;
71858;PMS5003;59713;50.866;4.324;2023-04-16T05:43:05;2;2;
71858;PMS5003;59713;50.866;4.324;2023-04-16T05:44:05;2;2;
71858;PMS5003;59713;50.866;4.324;2023-04-16T05:44:06;2;2;
71858;PMS5003;59713;50.866;4.324;2023-04-16T05:45:06;2;2;
71858;PMS5003;59713;50.866;4.324;2023-04-16T05:46:06;4;1;
71858;PMS5003;59713;50.866;4.324;2023-04-16T05:47:05;4;1;
71858;PMS5003;59713;50.866;4.324;2023-04-16T05:48:06;4;1;
71858;PMS5003;59713;50.866;4.324;2023-04-16T05:49:06;4;4;
71858;PMS5003;59713;50.866;4.324;2023-04-16T05:50:06;4;4;
71858;PMS5003;59713;50.866;4.324;2023-04-16T05:51:06;4;4;
71858;PMS5003;59713;50.866;4.324;2023-04-16T05:52:05;1;1;
71858;PMS5003;59713;50.866;4.324;2023-04-16T05:53:06;1;1;
71858;PMS5003;59713;50.866;4.324;2023-04-16T05:54:06;1;1;
71858;PMS5003;59713;50.866;4.324;2023-04-16T05:55:06;3;3;
71858;PMS5003;59713;50.866;4.324;2023-04-16T05:56:06;3;3;
71858;PMS5003;59713;50.866;4.324;2023-04-16T05:57:06;3;3;
71858;PMS5003;59713;50.866;4.324;2023-04-16T05:58:06;5;3;
71858;PMS5003;59713;50.866;4.324;2023-04-16T05:59:06;5;3;
71858;PMS5003;59713;50.866;4.324;2023-04-16T06:00:06;5;3;
71858;PMS5003;59713;50.866;4.324;2023-04-16T06:01:06;6;3;
71858;PMS5003;59713;50.866;4.324;2023-04-16T06:02:06;6;3;
71858;PMS5003;59713;50.866;4.324;2023-04-16T06:03:06;6;3;
71858;PMS5003;59713;50.866;4.324;2023-04-16T06:04:06;3;2;
71858;PMS5003;59713;50.866;4.324;2023-04-16T06:05:06;3;2;
71858;PMS5003;59713;50.866;4.324;2023-04-16T06:06:06;3;2;
71858;PMS5003;59713;50.866;4.324;2023-04-16T06:07:06;3;3;
71858;PMS5003;59713;50.866;4.324;2023-04-16T06:08:06;3;3;
71858;PMS5003;59713;50.866;4.324;2023-04-16T06:09:06;3;3;
71858;PMS5003;59713;50.866;4.324;2023-04-16T06:10:06;3;3;
71858;PMS5003;59713;50.866;4.324;2023-04-16T06:11:06;3;3;
71858;PMS5003;59713;50.866;4.324;2023-04-16T06:11:06;3;3;
71858;PMS5003;59713;50.866;4.324;2023-04-16T06:12:06;3;3;
71858;PMS5003;59713;50.866;4.324;2023-04-16T06:13:06;2;2;
71858;PMS5003;59713;50.866;4.324;2023-04-16T06:14:06;2;2;
71858;PMS5003;59713;50.866;4.324;2023-04-16T06:15:06;2;2;
71858;PMS5003;59713;50.866;4.324;2023-04-16T06:16:06;4;3;